Hauptseite
METAR-TAF:

METAR-TAF

Flughäfen :

Tokushima, Japan

Breite: 34-08N, Länge: 134-37E, Höhe: 8 m

Beobachtung

Neuester Wetterbericht von vor 15 Minuten, um 14:26 UTC
Wind 4 kt aus Ost
Temperatur 27°C
Luftfeuchtigkeit 94%
Luftdruck 1011 hPa
Sichtweite: 8000 m
Leicht bewölkt in der Höhe von 300 ft
Durchbrochene Bewölkung in der Höhe von 400 ft

METAR: RJOS 211426Z 08004KT 8000 FEW003 BKN004 27/26 Q1011 RMK 1ST003 5ST004 A2987

Zeit: 23:41 (14:41 UTC)


TAF: fehlend

Wetterbeobachtungen und Prognosen von mehr als 4000 Flughäfen (METAR und TAF Bericht).

Die verfügbaren Stationen werden durch gelbe und rote Markierungen auf der Karte dargestellt.

Führen Sie die Maus auf sie, um den Namen der Station zu sehen.

Darauf klicken, um die Beobachtung von Wetterbeobachtungen und Prognosen zu sehen.

Um die Karte zu ändern : klicken Sie auf den grünen Tasten mit einem schwarzen Kreuz Zum Vergrößern, auf den grünen Button mit einem Gedankenstrich zu verkleinern, oder auf die grünen Pfeile für benachbarte Karten.


METAR-TAF: